Time;durP1;ratioP1;P1;durP2;ratioP2;P2;SDS_P1;SDS_P2;PMS_P1;PMS_P2;Temp;Humidity;BMP_temperature;BMP_pressure;BME280_temperature;BME280_humidity;BME280_pressure;Samples;Min_cycle;Max_cycle;Signal;HPM_P1;HPM_P2
2022/05/23 00:00:22;;;;;;;6.43;1.60;;;;;;;;;;5059832;28;20032;-61
2022/05/23 00:02:49;;;;;;;9.85;1.88;;;;;;;;;;5068929;28;20459;-61
2022/05/23 00:05:15;;;;;;;4.30;1.33;;;;;;;;;;5059875;28;20045;-61
2022/05/23 00:07:43;;;;;;;4.03;1.38;;;;;;;;;;5071183;28;20063;-61
2022/05/23 00:10:10;;;;;;;6.57;1.30;;;;;;;;;;5058473;28;20475;-61
2022/05/23 00:12:36;;;;;;;7.78;1.50;;;;;;;;;;5051431;28;20446;-61
2022/05/23 00:15:06;;;;;;;6.15;1.45;;;;;;;;;;5057603;28;20036;-61
2022/05/23 00:17:32;;;;;;;4.95;1.42;;;;;;;;;;5070626;28;20056;-61
2022/05/23 00:19:59;;;;;;;8.77;2.28;;;;;;;;;;5057589;28;20029;-61
2022/05/23 00:22:25;;;;;;;5.45;1.70;;;;;;;;;;5069794;28;20146;-62
2022/05/23 00:24:51;;;;;;;5.15;1.88;;;;;;;;;;5050871;28;20123;-62
2022/05/23 00:27:19;;;;;;;6.00;1.38;;;;;;;;;;5052992;28;20447;-60
2022/05/23 00:29:45;;;;;;;4.90;1.50;;;;;;;;;;5058123;28;20556;-60
2022/05/23 00:37:40;;;;;;;3.83;1.40;;;;;;;;;;5052762;28;20044;-60
2022/05/23 00:40:07;;;;;;;5.30;1.25;;;;;;;;;;5057513;28;20021;-60
2022/05/23 00:45:19;;;;;;;4.80;1.23;;;;;;;;;;5054519;28;20102;-60
2022/05/23 00:47:46;;;;;;;5.43;1.30;;;;;;;;;;5065573;28;20100;-60
2022/05/23 00:50:16;;;;;;;8.63;1.50;;;;;;;;;;5064462;28;20415;-60
2022/05/23 00:52:45;;;;;;;7.40;1.77;;;;;;;;;;5063857;28;20029;-60
2022/05/23 00:55:14;;;;;;;3.92;1.20;;;;;;;;;;5065448;28;20029;-60
2022/05/23 00:57:43;;;;;;;3.83;1.40;;;;;;;;;;5058124;28;20424;-60
2022/05/23 01:00:10;;;;;;;5.15;1.70;;;;;;;;;;5054935;28;20290;-60
2022/05/23 01:02:37;;;;;;;4.78;1.73;;;;;;;;;;5060152;28;20490;-60
2022/05/23 01:05:04;;;;;;;4.53;1.30;;;;;;;;;;5068183;28;20035;-60
2022/05/23 01:07:30;;;;;;;5.20;1.38;;;;;;;;;;5051154;28;20112;-60
2022/05/23 01:09:56;;;;;;;3.97;1.52;;;;;;;;;;5058964;28;20024;-60
2022/05/23 01:12:22;;;;;;;5.05;1.60;;;;;;;;;;5064923;28;20059;-60
2022/05/23 01:14:56;;;;;;;4.30;1.25;;;;;;;;;;5070209;28;20036;-60
2022/05/23 01:17:23;;;;;;;4.05;1.40;;;;;;;;;;5056843;28;20021;-60
2022/05/23 01:19:49;;;;;;;5.65;1.50;;;;;;;;;;5069712;28;20470;-60
2022/05/23 01:22:28;;;;;;;4.53;1.40;;;;;;;;;;5057006;28;20027;-60
2022/05/23 01:25:00;;;;;;;3.92;1.38;;;;;;;;;;5070142;28;20043;-60
2022/05/23 01:27:28;;;;;;;7.60;1.67;;;;;;;;;;5063940;28;20379;-60
2022/05/23 01:29:54;;;;;;;6.15;1.30;;;;;;;;;;5049881;28;20032;-60
2022/05/23 01:32:20;;;;;;;8.25;1.77;;;;;;;;;;5053438;28;20102;-61
2022/05/23 01:34:46;;;;;;;4.03;1.15;;;;;;;;;;5049250;28;20526;-60
2022/05/23 01:37:12;;;;;;;8.25;1.38;;;;;;;;;;5058179;28;20028;-61
2022/05/23 01:39:38;;;;;;;5.43;1.30;;;;;;;;;;5055309;28;20044;-61
2022/05/23 01:42:06;;;;;;;4.68;1.67;;;;;;;;;;5065324;28;20078;-60
2022/05/23 01:44:33;;;;;;;3.35;1.38;;;;;;;;;;5054889;28;20044;-60
2022/05/23 01:46:59;;;;;;;3.33;1.20;;;;;;;;;;5053850;28;20111;-60
2022/05/23 01:49:26;;;;;;;5.95;1.33;;;;;;;;;;5057333;28;20033;-60
2022/05/23 01:51:52;;;;;;;4.38;1.08;;;;;;;;;;5051539;28;20036;-60
2022/05/23 01:54:18;;;;;;;4.03;1.45;;;;;;;;;;5059307;28;20033;-61
2022/05/23 01:56:44;;;;;;;5.95;1.40;;;;;;;;;;5050702;28;20482;-60
2022/05/23 02:01:56;;;;;;;5.80;1.30;;;;;;;;;;5051070;28;20035;-61
2022/05/23 02:04:22;;;;;;;5.07;1.25;;;;;;;;;;5059783;28;20041;-61
2022/05/23 02:06:48;;;;;;;4.60;1.08;;;;;;;;;;5050228;28;20075;-61
2022/05/23 02:09:14;;;;;;;3.47;1.17;;;;;;;;;;5058858;28;20578;-61
2022/05/23 02:11:40;;;;;;;4.22;1.45;;;;;;;;;;5047643;28;20048;-61
2022/05/23 02:14:06;;;;;;;4.72;1.45;;;;;;;;;;5059997;28;20029;-61
2022/05/23 02:16:32;;;;;;;4.32;1.33;;;;;;;;;;5029827;28;20052;-61
2022/05/23 02:18:59;;;;;;;3.20;1.08;;;;;;;;;;5052883;28;20067;-61
2022/05/23 02:21:25;;;;;;;4.72;1.20;;;;;;;;;;5048122;28;20471;-61
2022/05/23 02:23:51;;;;;;;4.07;1.55;;;;;;;;;;5058327;28;20048;-61
2022/05/23 02:26:17;;;;;;;4.93;1.77;;;;;;;;;;5051727;28;20040;-61
2022/05/23 02:28:43;;;;;;;5.75;1.60;;;;;;;;;;5056659;28;20028;-61
2022/05/23 02:31:09;;;;;;;3.72;1.48;;;;;;;;;;5054618;28;20044;-61
2022/05/23 02:33:35;;;;;;;3.97;1.40;;;;;;;;;;5053889;28;20107;-61
2022/05/23 02:36:01;;;;;;;3.22;1.02;;;;;;;;;;5038657;28;20175;-61
2022/05/23 02:38:27;;;;;;;4.40;1.10;;;;;;;;;;5051090;28;20029;-61
2022/05/23 02:40:54;;;;;;;4.28;1.35;;;;;;;;;;5059079;28;20036;-61
2022/05/23 02:43:19;;;;;;;3.90;1.10;;;;;;;;;;5051841;28;20041;-61
2022/05/23 02:45:46;;;;;;;6.30;1.73;;;;;;;;;;5046478;28;20028;-61
2022/05/23 02:48:12;;;;;;;3.67;1.23;;;;;;;;;;5068131;28;20147;-61
2022/05/23 02:50:38;;;;;;;6.18;1.63;;;;;;;;;;5063927;28;20753;-61
2022/05/23 02:53:04;;;;;;;3.85;1.05;;;;;;;;;;5052786;28;20071;-61
2022/05/23 02:55:30;;;;;;;4.22;1.55;;;;;;;;;;5064826;28;20162;-61
2022/05/23 02:57:56;;;;;;;5.50;1.20;;;;;;;;;;5053064;28;20104;-61
2022/05/23 03:00:22;;;;;;;3.80;1.10;;;;;;;;;;5064087;28;20668;-61
2022/05/23 03:03:03;;;;;;;6.72;1.50;;;;;;;;;;5069289;28;20122;-61
2022/05/23 03:05:30;;;;;;;5.60;1.05;;;;;;;;;;5068211;28;20128;-61
2022/05/23 03:07:56;;;;;;;5.40;1.38;;;;;;;;;;5052682;28;20103;-61
2022/05/23 03:10:22;;;;;;;4.47;1.35;;;;;;;;;;5061946;28;20382;-61
2022/05/23 03:12:48;;;;;;;3.85;1.25;;;;;;;;;;5061341;28;20020;-61
2022/05/23 03:15:14;;;;;;;5.53;1.15;;;;;;;;;;5064804;28;20098;-61
2022/05/23 03:17:40;;;;;;;3.78;1.05;;;;;;;;;;5066692;28;20039;-61
2022/05/23 03:20:07;;;;;;;7.13;1.52;;;;;;;;;;5067590;28;20025;-61
2022/05/23 03:28:04;;;;;;;3.78;1.20;;;;;;;;;;5067803;28;20448;-61
2022/05/23 03:30:31;;;;;;;5.55;1.50;;;;;;;;;;5067728;28;20053;-61
2022/05/23 03:32:57;;;;;;;6.15;1.63;;;;;;;;;;5059066;28;20021;-61
2022/05/23 03:35:23;;;;;;;4.78;0.85;;;;;;;;;;5055201;28;20041;-61
2022/05/23 03:37:49;;;;;;;4.88;1.42;;;;;;;;;;5062302;28;20453;-61
2022/05/23 03:40:15;;;;;;;4.35;1.00;;;;;;;;;;5068847;28;20123;-61
2022/05/23 03:42:41;;;;;;;4.47;1.42;;;;;;;;;;5062651;28;20060;-61
2022/05/23 03:45:08;;;;;;;4.13;1.15;;;;;;;;;;5052557;28;20041;-61
2022/05/23 03:47:34;;;;;;;5.82;1.25;;;;;;;;;;5062964;28;20150;-61
2022/05/23 03:50:00;;;;;;;3.33;1.00;;;;;;;;;;5052188;28;20048;-61
2022/05/23 03:52:26;;;;;;;6.30;1.60;;;;;;;;;;5064047;28;20024;-61
2022/05/23 03:54:52;;;;;;;5.85;1.70;;;;;;;;;;5051578;28;20056;-61
2022/05/23 03:57:18;;;;;;;8.93;1.45;;;;;;;;;;5057400;28;20064;-61
2022/05/23 03:59:45;;;;;;;6.72;2.08;;;;;;;;;;5058994;28;20021;-61
2022/05/23 04:02:12;;;;;;;5.93;1.38;;;;;;;;;;5055923;28;20624;-61
2022/05/23 04:04:38;;;;;;;5.30;1.33;;;;;;;;;;5069841;28;20037;-61
2022/05/23 04:07:05;;;;;;;5.78;1.17;;;;;;;;;;5062408;28;20044;-61
2022/05/23 04:09:31;;;;;;;5.72;1.42;;;;;;;;;;5066931;28;20103;-61
2022/05/23 04:11:57;;;;;;;5.18;1.48;;;;;;;;;;5065369;28;20059;-61
2022/05/23 04:14:25;;;;;;;5.53;1.23;;;;;;;;;;5069619;28;20386;-61
2022/05/23 04:16:51;;;;;;;6.53;1.60;;;;;;;;;;5066922;28;20379;-61
2022/05/23 04:19:17;;;;;;;3.25;1.00;;;;;;;;;;5059444;28;20025;-61
2022/05/23 04:21:45;;;;;;;4.78;1.30;;;;;;;;;;5052211;28;20459;-61
2022/05/23 04:24:11;;;;;;;5.85;1.90;;;;;;;;;;5062002;28;20487;-61
2022/05/23 04:26:37;;;;;;;4.90;1.48;;;;;;;;;;5052161;28;20032;-61
2022/05/23 04:29:04;;;;;;;4.30;1.42;;;;;;;;;;5061995;28;20446;-61
2022/05/23 04:31:30;;;;;;;3.60;1.35;;;;;;;;;;5050663;28;20021;-61
2022/05/23 04:36:41;;;;;;;3.08;1.20;;;;;;;;;;5050807;28;20067;-61
2022/05/23 04:39:07;;;;;;;5.22;1.67;;;;;;;;;;5063042;28;20028;-61
2022/05/23 04:41:33;;;;;;;4.95;1.58;;;;;;;;;;5069427;28;20102;-61
2022/05/23 04:44:00;;;;;;;4.32;1.40;;;;;;;;;;5065229;28;20028;-61
2022/05/23 04:46:27;;;;;;;3.85;1.25;;;;;;;;;;5050665;28;20075;-61
2022/05/23 04:51:39;;;;;;;4.95;1.35;;;;;;;;;;5050866;28;20083;-61
2022/05/23 04:54:05;;;;;;;4.38;1.45;;;;;;;;;;5062088;28;20028;-61
2022/05/23 04:56:31;;;;;;;3.38;1.15;;;;;;;;;;5050412;28;20049;-61
2022/05/23 04:58:57;;;;;;;5.53;1.60;;;;;;;;;;5059508;28;20554;-61
2022/05/23 05:01:23;;;;;;;4.57;1.42;;;;;;;;;;5053120;28;20025;-61
2022/05/23 05:03:50;;;;;;;5.32;1.50;;;;;;;;;;5065302;28;20040;-61
2022/05/23 05:06:17;;;;;;;2.53;1.10;;;;;;;;;;5070420;28;20078;-61
2022/05/23 05:08:43;;;;;;;8.32;2.45;;;;;;;;;;5065191;28;20028;-61
2022/05/23 05:11:09;;;;;;;6.55;1.88;;;;;;;;;;5061480;28;20032;-61
2022/05/23 05:13:36;;;;;;;24.60;4.07;;;;;;;;;;5067001;28;20465;-61
2022/05/23 05:16:02;;;;;;;17.17;3.28;;;;;;;;;;5060534;28;20144;-61
2022/05/23 05:18:29;;;;;;;25.08;3.47;;;;;;;;;;5068604;28;20115;-61
2022/05/23 05:20:55;;;;;;;18.17;4.20;;;;;;;;;;5058835;28;20104;-61
2022/05/23 05:23:21;;;;;;;17.77;5.38;;;;;;;;;;5065356;28;20160;-61
2022/05/23 05:25:47;;;;;;;31.55;4.88;;;;;;;;;;5063438;28;20056;-61
2022/05/23 05:28:13;;;;;;;16.77;4.55;;;;;;;;;;5061262;28;20040;-62
2022/05/23 05:30:42;;;;;;;21.60;4.53;;;;;;;;;;5059664;28;20024;-61
2022/05/23 05:33:13;;;;;;;21.13;5.22;;;;;;;;;;5056341;28;20021;-62
2022/05/23 05:35:51;;;;;;;27.48;5.55;;;;;;;;;;5065762;28;20045;-62
2022/05/23 05:38:24;;;;;;;20.13;4.85;;;;;;;;;;5061433;28;20099;-61
2022/05/23 05:40:55;;;;;;;22.25;5.18;;;;;;;;;;5064557;28;20032;-61
2022/05/23 05:43:24;;;;;;;17.13;5.40;;;;;;;;;;5062605;28;20013;-62
2022/05/23 05:45:52;;;;;;;16.33;5.07;;;;;;;;;;5063021;28;20033;-61
2022/05/23 05:48:19;;;;;;;22.00;6.30;;;;;;;;;;5057490;28;20096;-62
2022/05/23 05:50:46;;;;;;;29.75;7.10;;;;;;;;;;5057835;28;20116;-61
2022/05/23 05:53:14;;;;;;;20.83;5.25;;;;;;;;;;5058758;28;20035;-63
2022/05/23 05:55:41;;;;;;;23.20;5.60;;;;;;;;;;5059867;28;20017;-62
2022/05/23 05:58:08;;;;;;;19.00;5.75;;;;;;;;;;5065200;28;20029;-62
2022/05/23 06:00:34;;;;;;;21.92;5.55;;;;;;;;;;5065584;28;20797;-61
2022/05/23 06:03:00;;;;;;;20.88;5.88;;;;;;;;;;5058683;28;20048;-60
2022/05/23 06:05:26;;;;;;;26.35;6.35;;;;;;;;;;5061792;28;20468;-61
2022/05/23 06:13:21;;;;;;;37.13;6.18;;;;;;;;;;5063835;28;20445;-61
2022/05/23 06:15:48;;;;;;;19.38;5.45;;;;;;;;;;5051973;28;20128;-61
2022/05/23 06:18:14;;;;;;;20.13;5.00;;;;;;;;;;5058074;28;20356;-61
2022/05/23 06:20:40;;;;;;;15.38;5.47;;;;;;;;;;5050683;28;20028;-61
2022/05/23 06:23:06;;;;;;;16.52;4.82;;;;;;;;;;5062219;28;20013;-61
2022/05/23 06:25:33;;;;;;;17.50;5.25;;;;;;;;;;5054475;28;20040;-61
2022/05/23 06:27:59;;;;;;;20.70;5.70;;;;;;;;;;5064030;28;20035;-61
2022/05/23 06:30:25;;;;;;;16.35;5.80;;;;;;;;;;5052574;28;20028;-61
2022/05/23 06:32:51;;;;;;;14.82;5.75;;;;;;;;;;5064631;28;20052;-60
2022/05/23 06:35:18;;;;;;;22.33;7.80;;;;;;;;;;5052793;28;20427;-61
2022/05/23 06:37:44;;;;;;;14.35;5.93;;;;;;;;;;5063279;28;20406;-61
2022/05/23 06:40:12;;;;;;;16.73;5.97;;;;;;;;;;5072395;28;20153;-61
2022/05/23 06:42:38;;;;;;;15.63;5.95;;;;;;;;;;5059864;28;20103;-61
2022/05/23 06:45:06;;;;;;;17.92;6.35;;;;;;;;;;5071422;28;20097;-61
2022/05/23 06:47:33;;;;;;;16.95;6.07;;;;;;;;;;5068118;28;20037;-61
2022/05/23 06:49:59;;;;;;;13.20;6.30;;;;;;;;;;5065375;28;20032;-61
2022/05/23 06:52:25;;;;;;;12.77;6.30;;;;;;;;;;5067419;28;20044;-61
2022/05/23 06:54:51;;;;;;;18.65;6.15;;;;;;;;;;5072301;28;20021;-60
2022/05/23 06:57:17;;;;;;;19.63;6.97;;;;;;;;;;5066809;28;20119;-61
2022/05/23 06:59:43;;;;;;;17.42;7.35;;;;;;;;;;5062289;28;20531;-61
2022/05/23 07:02:10;;;;;;;17.30;6.10;;;;;;;;;;5068567;28;20013;-61
2022/05/23 07:12:52;;;;;;;13.57;7.35;;;;;;;;;;5068590;28;20043;-61
2022/05/23 07:15:18;;;;;;;16.25;6.75;;;;;;;;;;5069460;28;20111;-61
2022/05/23 07:17:44;;;;;;;13.68;6.20;;;;;;;;;;5067002;28;20058;-61
2022/05/23 07:20:11;;;;;;;13.38;6.97;;;;;;;;;;5066598;28;22282;-61
2022/05/23 07:22:37;;;;;;;12.50;6.22;;;;;;;;;;5067929;28;20020;-61
2022/05/23 07:25:03;;;;;;;13.77;6.00;;;;;;;;;;5067565;28;20032;-61
2022/05/23 07:27:30;;;;;;;11.90;6.10;;;;;;;;;;5067564;28;20462;-61
2022/05/23 07:29:56;;;;;;;13.02;6.68;;;;;;;;;;5067730;28;20069;-61
2022/05/23 07:32:22;;;;;;;10.00;5.78;;;;;;;;;;5068315;28;20108;-61
2022/05/23 07:34:48;;;;;;;14.00;6.20;;;;;;;;;;5066375;28;20112;-61
2022/05/23 07:37:15;;;;;;;12.10;5.97;;;;;;;;;;5067418;28;20017;-61
2022/05/23 07:39:41;;;;;;;15.98;6.07;;;;;;;;;;5067391;28;20043;-61
2022/05/23 07:42:08;;;;;;;12.85;6.78;;;;;;;;;;5066829;28;20115;-61
2022/05/23 07:44:37;;;;;;;10.95;5.55;;;;;;;;;;5067421;28;20051;-61
2022/05/23 07:47:06;;;;;;;11.52;5.35;;;;;;;;;;5068505;28;20537;-64
2022/05/23 07:49:32;;;;;;;12.93;6.13;;;;;;;;;;5066679;28;20024;-61
2022/05/23 07:51:58;;;;;;;9.15;4.68;;;;;;;;;;5066823;28;20887;-61
2022/05/23 08:02:39;;;;;;;10.48;5.40;;;;;;;;;;5067570;28;20039;-61
2022/05/23 08:05:06;;;;;;;14.70;5.00;;;;;;;;;;5064302;28;20075;-61
2022/05/23 08:07:32;;;;;;;10.02;5.72;;;;;;;;;;5066708;28;20043;-61
2022/05/23 08:10:00;;;;;;;8.43;4.93;;;;;;;;;;5067156;28;20103;-61
2022/05/23 08:12:27;;;;;;;11.55;5.32;;;;;;;;;;5067460;28;20035;-61
2022/05/23 08:14:53;;;;;;;10.70;4.82;;;;;;;;;;5066592;28;20036;-61
2022/05/23 08:17:19;;;;;;;8.25;4.20;;;;;;;;;;5066844;28;20548;-61
2022/05/23 08:19:45;;;;;;;10.65;4.80;;;;;;;;;;5065899;28;20467;-61
2022/05/23 08:22:11;;;;;;;10.98;5.05;;;;;;;;;;5065391;28;20107;-61
2022/05/23 08:24:37;;;;;;;8.05;4.30;;;;;;;;;;5064213;28;20110;-61
2022/05/23 08:27:04;;;;;;;10.45;5.43;;;;;;;;;;5065431;28;20038;-61
2022/05/23 08:29:31;;;;;;;9.23;4.80;;;;;;;;;;5065141;28;20024;-61
2022/05/23 08:31:58;;;;;;;10.95;4.70;;;;;;;;;;5066266;28;20035;-61
2022/05/23 08:34:24;;;;;;;12.90;5.13;;;;;;;;;;5066051;28;20203;-61
2022/05/23 08:36:52;;;;;;;10.68;5.00;;;;;;;;;;5066280;28;20107;-61
2022/05/23 08:39:18;;;;;;;8.75;4.30;;;;;;;;;;5065777;28;20037;-61
2022/05/23 08:41:45;;;;;;;11.90;5.15;;;;;;;;;;5065962;28;20021;-61
2022/05/23 08:44:17;;;;;;;12.45;4.25;;;;;;;;;;5063520;28;20078;-61
2022/05/23 08:46:50;;;;;;;9.05;4.68;;;;;;;;;;5063583;28;20583;-62
2022/05/23 08:49:16;;;;;;;11.27;4.35;;;;;;;;;;5063783;28;20141;-62
2022/05/23 08:51:51;;;;;;;8.80;4.10;;;;;;;;;;5065010;28;20045;-61
2022/05/23 08:54:30;;;;;;;8.73;3.92;;;;;;;;;;5064543;28;20052;-61
2022/05/23 08:56:57;;;;;;;10.82;4.68;;;;;;;;;;5065128;28;20044;-61
2022/05/23 08:59:23;;;;;;;8.70;4.53;;;;;;;;;;5047359;28;20139;-61
2022/05/23 09:02:00;;;;;;;7.43;3.88;;;;;;;;;;5065385;28;20020;-61
2022/05/23 09:04:32;;;;;;;12.27;4.97;;;;;;;;;;5065636;28;20615;-61
2022/05/23 09:06:59;;;;;;;8.73;3.83;;;;;;;;;;5065297;28;20029;-61
2022/05/23 09:09:27;;;;;;;14.07;4.40;;;;;;;;;;5064088;28;20032;-61
2022/05/23 09:11:56;;;;;;;11.25;4.18;;;;;;;;;;5064207;28;20033;-61
2022/05/23 09:14:22;;;;;;;8.73;4.35;;;;;;;;;;5064367;28;20465;-61
2022/05/23 09:16:52;;;;;;;11.02;4.43;;;;;;;;;;5064765;28;20181;-61
2022/05/23 09:19:28;;;;;;;11.10;4.88;;;;;;;;;;5064428;28;20037;-61
2022/05/23 09:22:12;;;;;;;8.60;4.07;;;;;;;;;;5063832;28;20049;-61
2022/05/23 09:25:14;;;;;;;8.90;4.53;;;;;;;;;;5063573;28;20048;-61
2022/05/23 09:27:59;;;;;;;9.05;4.07;;;;;;;;;;5000687;28;20030;-61
2022/05/23 09:30:27;;;;;;;6.10;4.05;;;;;;;;;;5060464;28;20141;-61
2022/05/23 09:33:02;;;;;;;9.23;4.43;;;;;;;;;;5064930;28;20393;-61
2022/05/23 09:35:47;;;;;;;10.90;4.50;;;;;;;;;;5064139;28;20053;-61
2022/05/23 09:38:22;;;;;;;8.82;5.07;;;;;;;;;;5065534;28;20115;-61
2022/05/23 09:40:48;;;;;;;8.00;3.75;;;;;;;;;;5065369;28;20051;-61
2022/05/23 09:49:09;;;;;;;8.52;3.92;;;;;;;;;;5056809;28;20043;-61
2022/05/23 09:51:54;;;;;;;7.05;3.67;;;;;;;;;;5046473;28;20541;-61
2022/05/23 09:54:22;;;;;;;9.98;4.20;;;;;;;;;;5058827;28;20024;-61
2022/05/23 09:56:49;;;;;;;9.82;4.70;;;;;;;;;;5046705;28;20094;-61
2022/05/23 09:59:29;;;;;;;8.27;4.20;;;;;;;;;;5062355;28;20078;-61
2022/05/23 10:01:55;;;;;;;13.85;4.13;;;;;;;;;;5070606;28;20020;-61
2022/05/23 10:04:29;;;;;;;10.10;3.90;;;;;;;;;;5059384;28;20489;-61
2022/05/23 10:06:55;;;;;;;11.13;4.30;;;;;;;;;;5070976;28;20027;-61
2022/05/23 10:09:33;;;;;;;11.60;4.43;;;;;;;;;;5065879;28;20406;-62
2022/05/23 10:12:00;;;;;;;9.32;4.03;;;;;;;;;;5052112;28;20029;-61
2022/05/23 10:14:40;;;;;;;8.93;4.10;;;;;;;;;;5060233;28;20044;-61
2022/05/23 10:17:07;;;;;;;16.52;3.95;;;;;;;;;;5051955;28;20106;-62
2022/05/23 10:19:35;;;;;;;7.90;3.20;;;;;;;;;;5060435;28;20051;-62
2022/05/23 10:22:18;;;;;;;8.23;3.70;;;;;;;;;;5055915;28;20166;-62
2022/05/23 10:24:51;;;;;;;8.65;4.22;;;;;;;;;;5060745;28;20036;-62
2022/05/23 10:27:21;;;;;;;8.00;3.30;;;;;;;;;;5055010;28;20090;-61
2022/05/23 10:29:53;;;;;;;6.37;3.03;;;;;;;;;;5055246;28;20108;-61
2022/05/23 10:32:40;;;;;;;7.20;3.80;;;;;;;;;;5068472;28;20020;-62
2022/05/23 10:35:16;;;;;;;8.95;3.45;;;;;;;;;;5062348;28;20491;-62
2022/05/23 10:37:44;;;;;;;5.97;3.00;;;;;;;;;;5051940;28;20482;-61
2022/05/23 10:43:04;;;;;;;5.93;2.67;;;;;;;;;;5070392;28;20044;-61
2022/05/23 10:45:39;;;;;;;5.63;3.10;;;;;;;;;;5067360;28;20055;-61
2022/05/23 10:48:20;;;;;;;7.72;3.45;;;;;;;;;;5053569;28;20027;-61
2022/05/23 10:51:04;;;;;;;8.52;2.97;;;;;;;;;;5061644;28;20062;-61
2022/05/23 10:53:33;;;;;;;6.35;2.88;;;;;;;;;;5051517;28;20028;-61
2022/05/23 10:56:12;;;;;;;8.95;2.95;;;;;;;;;;5056364;28;20108;-61
2022/05/23 10:58:48;;;;;;;6.85;3.35;;;;;;;;;;5071414;28;20085;-61
2022/05/23 11:01:33;;;;;;;5.85;2.42;;;;;;;;;;5060409;28;20454;-61
2022/05/23 11:04:25;;;;;;;7.93;2.90;;;;;;;;;;5051687;28;20068;-61
2022/05/23 11:06:54;;;;;;;7.25;2.88;;;;;;;;;;5059104;28;20119;-61
2022/05/23 11:09:20;;;;;;;8.00;3.13;;;;;;;;;;5050059;28;20056;-62
2022/05/23 11:12:04;;;;;;;6.85;2.67;;;;;;;;;;5063923;28;20036;-62
2022/05/23 11:14:33;;;;;;;5.35;2.40;;;;;;;;;;5057065;28;20121;-61
2022/05/23 11:17:15;;;;;;;6.05;2.40;;;;;;;;;;5057258;28;20032;-62
2022/05/23 11:19:53;;;;;;;6.30;2.50;;;;;;;;;;5070807;28;20035;-61
2022/05/23 11:22:22;;;;;;;5.88;2.60;;;;;;;;;;5056763;28;20090;-61
2022/05/23 11:24:54;;;;;;;6.05;2.45;;;;;;;;;;5050690;28;20029;-62
2022/05/23 11:35:43;;;;;;;6.28;2.75;;;;;;;;;;5051054;28;20110;-62
2022/05/23 11:38:11;;;;;;;6.97;2.75;;;;;;;;;;5058552;28;20037;-62
2022/05/23 11:40:40;;;;;;;5.88;2.28;;;;;;;;;;5070766;28;20028;-62
2022/05/23 11:43:06;;;;;;;12.18;2.92;;;;;;;;;;5066998;28;20576;-62
2022/05/23 11:48:41;;;;;;;35.13;18.85;;;;;;;;;;5058124;28;20043;-63
2022/05/23 11:51:10;;;;;;;42.08;22.25;;;;;;;;;;5071099;28;20033;-62
2022/05/23 11:53:39;;;;;;;41.10;24.67;;;;;;;;;;5055785;28;20024;-63
2022/05/23 11:56:07;;;;;;;40.85;24.23;;;;;;;;;;5070703;28;20048;-63
2022/05/23 11:58:36;;;;;;;39.17;21.73;;;;;;;;;;5056930;28;20467;-63
2022/05/23 12:01:05;;;;;;;37.20;21.95;;;;;;;;;;5069909;28;20028;-62
2022/05/23 12:03:46;;;;;;;35.00;18.63;;;;;;;;;;5056960;28;20048;-63
2022/05/23 12:06:17;;;;;;;30.25;17.45;;;;;;;;;;5070276;28;20513;-62
2022/05/23 12:08:59;;;;;;;32.35;17.48;;;;;;;;;;5064494;28;20179;-63
2022/05/23 12:11:26;;;;;;;28.58;16.27;;;;;;;;;;5050296;28;20104;-63
2022/05/23 12:13:57;;;;;;;30.23;16.35;;;;;;;;;;5054631;28;20032;-63
2022/05/23 12:16:34;;;;;;;25.60;14.70;;;;;;;;;;5050061;28;20029;-62
2022/05/23 12:19:19;;;;;;;19.45;10.57;;;;;;;;;;5043580;28;20021;-62
2022/05/23 12:21:46;;;;;;;24.13;11.07;;;;;;;;;;5059420;28;20082;-63
2022/05/23 12:24:18;;;;;;;24.42;11.93;;;;;;;;;;5059597;28;20062;-63
2022/05/23 12:26:50;;;;;;;23.13;11.50;;;;;;;;;;5059690;28;20389;-63
2022/05/23 12:29:28;;;;;;;20.70;11.30;;;;;;;;;;5063525;28;20081;-63
2022/05/23 12:32:12;;;;;;;23.17;11.25;;;;;;;;;;5059861;28;20032;-63
2022/05/23 12:34:43;;;;;;;21.67;11.10;;;;;;;;;;5059196;28;20132;-62
2022/05/23 12:37:10;;;;;;;;;;;;;;;;;;5061141;28;20084;-62
2022/05/23 12:39:36;;;;;;;23.30;11.65;;;;;;;;;;5062407;28;19967;-62
2022/05/23 12:42:14;;;;;;;22.48;10.65;;;;;;;;;;5058256;28;20025;-62
2022/05/23 12:44:58;;;;;;;24.15;11.38;;;;;;;;;;5059630;28;20398;-62
2022/05/23 12:47:24;;;;;;;23.05;11.02;;;;;;;;;;5057237;28;20040;-62
2022/05/23 12:50:11;;;;;;;19.27;9.98;;;;;;;;;;5062489;28;20024;-62
2022/05/23 12:52:49;;;;;;;21.23;10.13;;;;;;;;;;5059530;28;20099;-62
2022/05/23 12:55:34;;;;;;;24.88;10.90;;;;;;;;;;5058755;28;20105;-62
2022/05/23 12:58:16;;;;;;;25.65;10.52;;;;;;;;;;5060215;28;20021;-62
2022/05/23 13:00:49;;;;;;;20.67;10.73;;;;;;;;;;5060892;28;20035;-63
2022/05/23 13:03:37;;;;;;;19.25;9.27;;;;;;;;;;5057662;28;20445;-63
2022/05/23 13:06:23;;;;;;;26.48;9.77;;;;;;;;;;5063663;28;20031;-63
2022/05/23 13:08:56;;;;;;;15.57;8.65;;;;;;;;;;5059704;28;20021;-63
2022/05/23 13:11:25;;;;;;;19.23;9.18;;;;;;;;;;5062696;28;20146;-63
2022/05/23 13:13:51;;;;;;;18.63;10.23;;;;;;;;;;5064835;28;20509;-63
2022/05/23 13:16:22;;;;;;;23.55;9.90;;;;;;;;;;5061436;28;20018;-64
2022/05/23 13:27:04;;;;;;;42.28;10.05;;;;;;;;;;5059590;28;20127;-69
2022/05/23 13:29:32;;;;;;;33.38;9.40;;;;;;;;;;5058331;28;20036;-63
2022/05/23 13:31:59;;;;;;;23.23;8.63;;;;;;;;;;5059128;28;20021;-63
2022/05/23 13:34:30;;;;;;;31.55;9.40;;;;;;;;;;5066009;28;20052;-64
2022/05/23 13:36:56;;;;;;;31.35;9.32;;;;;;;;;;5057013;28;20035;-64
2022/05/23 13:39:22;;;;;;;25.17;9.25;;;;;;;;;;5068581;28;20050;-64
2022/05/23 13:41:48;;;;;;;39.25;10.07;;;;;;;;;;5064350;28;20033;-64
2022/05/23 13:44:28;;;;;;;26.27;9.43;;;;;;;;;;5048756;28;20510;-63
2022/05/23 13:47:02;;;;;;;31.47;9.23;;;;;;;;;;5067072;28;20536;-63
2022/05/23 13:49:39;;;;;;;30.60;9.63;;;;;;;;;;5069073;28;20269;-63
2022/05/23 13:52:08;;;;;;;27.52;7.72;;;;;;;;;;5067592;28;20100;-64
2022/05/23 13:54:37;;;;;;;31.13;7.95;;;;;;;;;;5067968;28;20119;-65
2022/05/23 13:57:05;;;;;;;22.83;6.25;;;;;;;;;;5062809;28;20680;-64
2022/05/23 13:59:34;;;;;;;20.80;7.43;;;;;;;;;;5061544;28;20111;-63
2022/05/23 14:02:03;;;;;;;23.15;6.45;;;;;;;;;;5062677;28;20112;-64
2022/05/23 14:04:31;;;;;;;15.38;5.50;;;;;;;;;;5060117;28;20041;-64
2022/05/23 14:07:00;;;;;;;17.52;5.55;;;;;;;;;;5062657;28;20541;-63
2022/05/23 14:09:26;;;;;;;16.40;5.60;;;;;;;;;;5063135;28;20139;-63
2022/05/23 14:11:54;;;;;;;15.60;5.35;;;;;;;;;;5062970;28;20095;-63
2022/05/23 14:14:23;;;;;;;18.95;5.80;;;;;;;;;;5061547;28;20501;-63
2022/05/23 14:16:52;;;;;;;13.52;5.05;;;;;;;;;;5062643;28;20029;-63
2022/05/23 14:19:20;;;;;;;17.60;5.90;;;;;;;;;;5063009;28;20056;-63
2022/05/23 14:21:46;;;;;;;23.77;6.53;;;;;;;;;;5062082;28;20052;-63
2022/05/23 14:24:16;;;;;;;19.27;5.80;;;;;;;;;;5061860;28;20177;-63
2022/05/23 14:26:42;;;;;;;;;;;;;;;;;;5063547;28;20123;-63
2022/05/23 14:29:14;;;;;;;17.67;5.88;;;;;;;;;;5062041;28;20424;-63
2022/05/23 14:32:01;;;;;;;24.92;5.65;;;;;;;;;;5060758;28;20028;-63
2022/05/23 14:34:29;;;;;;;33.92;6.65;;;;;;;;;;5062515;28;20132;-63
2022/05/23 14:36:57;;;;;;;34.45;7.03;;;;;;;;;;5062175;28;20036;-63
2022/05/23 14:39:30;;;;;;;29.95;6.35;;;;;;;;;;5061308;28;20024;-63
2022/05/23 14:41:57;;;;;;;33.05;6.32;;;;;;;;;;5060484;28;20036;-63
2022/05/23 14:44:29;;;;;;;31.10;7.68;;;;;;;;;;5063947;28;20060;-63
2022/05/23 14:47:09;;;;;;;26.88;6.90;;;;;;;;;;5066572;28;20033;-63
2022/05/23 14:49:39;;;;;;;30.40;5.60;;;;;;;;;;5064343;28;20033;-63
2022/05/23 14:52:05;;;;;;;;;;;;;;;;;;5064658;28;20044;-63
2022/05/23 15:00:37;;;;;;;27.48;5.55;;;;;;;;;;5070810;28;20071;-64
2022/05/23 15:02:54;;;;;;;28.77;5.63;;;;;;;;;;5054157;28;20083;-63
2022/05/23 15:05:21;;;;;;;25.45;5.40;;;;;;;;;;5063704;28;20892;-63
2022/05/23 15:07:57;;;;;;;20.17;5.47;;;;;;;;;;5052743;28;20855;-63
2022/05/23 15:10:23;;;;;;;19.25;5.90;;;;;;;;;;5062968;28;20076;-63
2022/05/23 15:12:49;;;;;;;23.45;5.35;;;;;;;;;;5052675;28;20431;-63
2022/05/23 15:15:16;;;;;;;21.70;5.60;;;;;;;;;;5064306;28;20546;-63
2022/05/23 15:17:42;;;;;;;17.67;4.97;;;;;;;;;;5051944;28;20103;-63
2022/05/23 15:20:10;;;;;;;21.13;6.45;;;;;;;;;;5064343;28;20032;-63
2022/05/23 15:22:36;;;;;;;26.40;5.72;;;;;;;;;;5051616;28;20025;-63
2022/05/23 15:25:02;;;;;;;19.67;4.90;;;;;;;;;;5062896;28;20045;-63
2022/05/23 15:27:29;;;;;;;23.58;5.65;;;;;;;;;;5053049;28;20025;-63
2022/05/23 15:29:57;;;;;;;20.63;5.15;;;;;;;;;;5060479;28;20025;-63
2022/05/23 15:32:23;;;;;;;26.67;6.07;;;;;;;;;;5054530;28;20434;-64
2022/05/23 15:34:49;;;;;;;23.02;6.65;;;;;;;;;;5057407;28;20140;-63
2022/05/23 15:37:16;;;;;;;23.02;5.45;;;;;;;;;;5057687;28;20476;-63
2022/05/23 15:39:42;;;;;;;23.35;7.07;;;;;;;;;;5054199;28;20028;-63
2022/05/23 15:42:11;;;;;;;25.42;6.78;;;;;;;;;;5051287;28;20036;-64
2022/05/23 15:44:38;;;;;;;18.25;6.53;;;;;;;;;;5066760;28;20038;-64
2022/05/23 15:47:07;;;;;;;28.73;8.55;;;;;;;;;;5060167;28;20474;-64
2022/05/23 15:49:33;;;;;;;33.75;10.73;;;;;;;;;;5070178;28;20021;-64
2022/05/23 15:52:01;;;;;;;32.55;11.27;;;;;;;;;;5060860;28;20104;-64
2022/05/23 15:54:28;;;;;;;28.88;12.13;;;;;;;;;;5068579;28;20024;-64
2022/05/23 15:56:54;;;;;;;33.05;12.82;;;;;;;;;;5056241;28;20592;-63
2022/05/23 15:59:21;;;;;;;28.48;11.95;;;;;;;;;;5071847;28;20115;-63
2022/05/23 16:01:47;;;;;;;30.42;12.13;;;;;;;;;;5064180;28;20029;-64
2022/05/23 16:04:15;;;;;;;37.53;13.75;;;;;;;;;;5051565;28;20090;-64